Time;durP1;ratioP1;P1;durP2;ratioP2;P2;SDS_P1;SDS_P2;PMS_P1;PMS_P2;Temp;Humidity;BMP_temperature;BMP_pressure;BME280_temperature;BME280_humidity;BME280_pressure;Samples;Min_cycle;Max_cycle;Signal;HPM_P1;HPM_P2
2021/04/26 00:02:00;;;;;;;2.58;1.40;;;4.90;96.70;;;;;;5116149;27;20250;-85
2021/04/26 00:04:26;;;;;;;4.45;1.90;;;4.90;96.90;;;;;;5068539;27;20269;-86
2021/04/26 00:06:52;;;;;;;2.53;1.40;;;4.80;97.40;;;;;;5078089;27;20230;-87
2021/04/26 00:09:18;;;;;;;3.67;1.60;;;4.80;97.50;;;;;;5106318;27;20223;-87
2021/04/26 00:11:45;;;;;;;1.85;1.50;;;4.80;98.20;;;;;;5048284;27;20187;-84
2021/04/26 00:14:11;;;;;;;2.40;1.30;;;4.80;98.20;;;;;;5107670;27;20706;-84
2021/04/26 00:16:37;;;;;;;2.85;1.45;;;4.70;98.20;;;;;;5076342;27;20302;-84
2021/04/26 00:19:05;;;;;;;3.20;1.63;;;4.70;98.10;;;;;;5069998;27;20275;-84
2021/04/26 00:21:31;;;;;;;3.17;1.73;;;4.70;98.60;;;;;;5106176;27;20179;-87
2021/04/26 00:23:57;;;;;;;2.22;1.50;;;4.60;98.90;;;;;;5098376;27;20211;-88
2021/04/26 00:26:23;;;;;;;2.08;1.33;;;4.60;99.60;;;;;;5098779;27;20233;-85
2021/04/26 00:28:50;;;;;;;1.65;1.50;;;4.60;99.70;;;;;;5085464;27;20218;-85
2021/04/26 00:31:16;;;;;;;4.10;1.80;;;4.50;99.90;;;;;;5060578;27;20219;-86
2021/04/26 00:33:42;;;;;;;3.60;1.58;;;4.50;99.90;;;;;;5123421;27;20180;-86
2021/04/26 00:36:09;;;;;;;3.50;1.48;;;4.50;99.90;;;;;;5109167;27;20238;-86
2021/04/26 00:38:35;;;;;;;2.00;1.80;;;4.50;99.90;;;;;;5074790;27;20199;-88
2021/04/26 00:41:01;;;;;;;2.10;1.40;;;4.50;99.90;;;;;;5134671;27;20230;-85
2021/04/26 00:43:27;;;;;;;2.53;1.80;;;4.50;99.90;;;;;;5052289;27;20223;-83
2021/04/26 00:45:54;;;;;;;3.65;1.85;;;4.50;99.90;;;;;;5115823;27;20233;-83
2021/04/26 00:48:20;;;;;;;1.60;1.50;;;4.40;99.90;;;;;;5064171;27;20194;-87
2021/04/26 00:50:46;;;;;;;3.88;1.80;;;4.30;99.90;;;;;;5081679;27;20191;-85
2021/04/26 00:53:12;;;;;;;2.22;1.85;;;4.30;99.90;;;;;;5101766;27;20219;-87
2021/04/26 00:55:40;;;;;;;4.07;2.20;;;4.30;99.90;;;;;;5048070;27;20220;-84
2021/04/26 00:58:07;;;;;;;1.70;1.60;;;4.20;99.90;;;;;;5042041;27;20265;-84
2021/04/26 01:00:34;;;;;;;2.92;1.50;;;4.20;99.90;;;;;;5090522;27;20704;-84
2021/04/26 01:03:02;;;;;;;1.98;1.60;;;4.20;99.90;;;;;;5091737;27;20191;-84
2021/04/26 01:05:30;;;;;;;2.47;1.60;;;4.10;99.90;;;;;;5051266;28;20676;-85
2021/04/26 01:07:56;;;;;;;2.20;2.00;;;4.10;99.90;;;;;;5116230;27;20278;-85
2021/04/26 01:10:25;;;;;;;5.05;2.10;;;4.10;99.90;;;;;;5065308;28;20195;-85
2021/04/26 01:13:07;;;;;;;3.15;1.70;;;4.00;99.90;;;;;;5077421;28;20195;-85
2021/04/26 01:15:41;;;;;;;1.92;1.67;;;4.00;99.90;;;;;;5115551;28;20211;-85
2021/04/26 01:18:12;;;;;;;2.80;2.13;;;3.90;99.90;;;;;;5038937;28;20183;-83
2021/04/26 01:21:11;;;;;;;2.00;1.80;;;3.80;99.90;;;;;;5087104;28;20186;-83
2021/04/26 01:24:11;;;;;;;2.45;1.58;;;3.80;99.90;;;;;;5113541;28;20184;-84
2021/04/26 01:26:58;;;;;;;2.53;1.42;;;3.70;99.90;;;;;;5031774;28;20251;-84
2021/04/26 01:29:36;;;;;;;3.20;2.20;;;3.70;99.90;;;;;;5109063;28;20207;-84
2021/04/26 01:32:18;;;;;;;3.28;2.65;;;3.60;99.90;;;;;;5034191;28;20179;-84
2021/04/26 01:34:46;;;;;;;5.05;3.25;;;3.50;99.90;;;;;;5082299;27;20190;-84
2021/04/26 01:37:14;;;;;;;4.93;2.95;;;3.50;99.90;;;;;;5100398;28;20267;-85
2021/04/26 01:39:41;;;;;;;4.38;3.17;;;3.40;99.90;;;;;;5047157;27;20218;-84
2021/04/26 01:42:08;;;;;;;4.20;3.40;;;3.30;99.90;;;;;;5124977;28;20240;-84
2021/04/26 01:44:36;;;;;;;8.70;4.35;;;3.30;99.90;;;;;;5089251;27;20240;-83
2021/04/26 01:47:03;;;;;;;8.15;4.60;;;3.20;99.90;;;;;;5092623;28;20236;-83
2021/04/26 01:49:31;;;;;;;14.90;7.50;;;3.20;99.90;;;;;;5049964;28;20915;-83
2021/04/26 01:51:57;;;;;;;12.15;7.10;;;3.10;99.90;;;;;;5115224;28;20236;-83
2021/04/26 01:54:26;;;;;;;15.27;8.55;;;3.00;99.90;;;;;;5065301;28;20228;-83
2021/04/26 01:56:52;;;;;;;9.48;6.07;;;3.00;99.90;;;;;;5076061;28;20681;-84
2021/04/26 01:59:19;;;;;;;20.30;10.60;;;3.00;99.90;;;;;;5104565;28;20270;-83
2021/04/26 02:01:46;;;;;;;19.50;10.35;;;3.00;99.90;;;;;;5046704;28;20231;-85
2021/04/26 02:04:14;;;;;;;8.13;4.68;;;2.90;99.90;;;;;;5105172;28;20274;-85
2021/04/26 02:06:41;;;;;;;6.97;3.47;;;3.00;99.90;;;;;;5076698;28;20225;-85
2021/04/26 02:09:07;;;;;;;7.45;4.55;;;3.00;99.90;;;;;;5065310;28;20223;-86
2021/04/26 02:11:35;;;;;;;10.88;5.68;;;3.00;99.90;;;;;;5114855;28;20240;-88
2021/04/26 02:14:01;;;;;;;16.77;9.93;;;3.10;99.90;;;;;;5049170;28;20179;-87
2021/04/26 02:16:28;;;;;;;11.20;5.55;;;3.10;99.90;;;;;;5095977;27;20211;-84
2021/04/26 02:18:54;;;;;;;6.03;2.83;;;3.10;99.90;;;;;;5090289;27;20193;-84
2021/04/26 02:21:20;;;;;;;5.95;2.97;;;3.10;99.90;;;;;;5059760;27;20229;-84
2021/04/26 02:23:47;;;;;;;5.85;4.10;;;3.20;99.90;;;;;;5116786;27;20211;-84
2021/04/26 02:26:13;;;;;;;8.30;4.97;;;3.20;99.90;;;;;;5034509;28;20210;-83
2021/04/26 02:28:39;;;;;;;11.00;5.20;;;3.30;99.90;;;;;;5079553;27;20271;-85
2021/04/26 02:31:06;;;;;;;11.10;5.75;;;3.30;99.90;;;;;;5069990;27;20186;-85
2021/04/26 02:33:37;;;;;;;10.00;5.50;;;3.30;99.90;;;;;;5117395;27;20194;-85
2021/04/26 02:36:07;;;;;;;6.85;4.60;;;3.30;99.90;;;;;;5038090;27;20246;-85
2021/04/26 02:38:39;;;;;;;20.50;11.02;;;3.30;99.90;;;;;;5092999;27;20253;-85
2021/04/26 02:41:07;;;;;;;38.65;17.95;;;3.40;99.90;;;;;;5097962;27;20183;-85
2021/04/26 02:43:37;;;;;;;34.13;17.63;;;3.30;99.90;;;;;;5049621;27;20226;-84
2021/04/26 02:46:05;;;;;;;27.38;15.23;;;3.30;99.90;;;;;;5114383;27;20259;-84
2021/04/26 02:48:31;;;;;;;27.00;13.00;;;3.30;99.90;;;;;;5031859;28;20233;-84
2021/04/26 02:51:00;;;;;;;17.00;8.02;;;3.20;99.90;;;;;;5092245;27;20194;-84
2021/04/26 02:53:28;;;;;;;22.25;12.95;;;3.20;99.90;;;;;;5054758;27;20214;-84
2021/04/26 02:55:59;;;;;;;26.15;12.52;;;3.10;99.90;;;;;;5117886;27;20222;-84
2021/04/26 02:58:28;;;;;;;24.05;12.05;;;3.10;99.90;;;;;;5069497;27;20207;-84
2021/04/26 03:00:55;;;;;;;19.10;9.43;;;3.10;99.90;;;;;;5077211;27;20259;-84
2021/04/26 03:03:21;;;;;;;20.20;10.80;;;3.00;99.90;;;;;;5108906;27;20270;-84
2021/04/26 03:05:50;;;;;;;14.55;6.20;;;3.00;99.90;;;;;;5049277;27;20241;-84
2021/04/26 03:08:16;;;;;;;18.45;10.25;;;3.00;99.90;;;;;;5105152;27;20221;-84
2021/04/26 03:10:46;;;;;;;15.10;8.40;;;3.00;99.90;;;;;;5081195;27;20211;-85
2021/04/26 03:13:12;;;;;;;16.55;9.75;;;3.00;99.90;;;;;;5064419;27;20266;-85
2021/04/26 03:15:40;;;;;;;15.45;8.38;;;3.00;99.90;;;;;;5117533;27;20192;-86
2021/04/26 03:18:06;;;;;;;14.98;7.72;;;2.90;99.90;;;;;;5055180;27;20542;-86
2021/04/26 03:20:32;;;;;;;16.63;7.40;;;2.90;99.90;;;;;;5092650;27;20218;-85
2021/04/26 03:22:59;;;;;;;14.90;6.80;;;2.80;99.90;;;;;;5090785;27;20213;-84
2021/04/26 03:25:26;;;;;;;13.35;6.00;;;2.80;99.90;;;;;;5054867;27;20222;-85
2021/04/26 03:27:54;;;;;;;9.93;5.95;;;2.80;99.90;;;;;;5036589;27;20194;-85
2021/04/26 03:30:23;;;;;;;9.80;5.90;;;2.70;99.90;;;;;;5077805;27;20334;-86
2021/04/26 03:32:50;;;;;;;11.55;5.80;;;2.70;99.90;;;;;;5080314;27;20183;-83
2021/04/26 03:35:19;;;;;;;10.38;5.18;;;2.60;99.90;;;;;;5105168;27;20646;-84
2021/04/26 03:37:46;;;;;;;8.15;3.90;;;2.60;99.90;;;;;;5048709;27;20830;-85
2021/04/26 03:40:16;;;;;;;5.50;3.38;;;2.60;99.90;;;;;;5107210;27;20668;-85
2021/04/26 03:42:42;;;;;;;9.63;4.25;;;2.60;99.90;;;;;;5080536;27;20215;-85
2021/04/26 03:45:10;;;;;;;6.15;3.55;;;2.60;99.90;;;;;;5065804;27;20308;-84
2021/04/26 03:47:36;;;;;;;5.70;3.25;;;2.60;99.90;;;;;;5116842;27;20231;-84
2021/04/26 03:50:03;;;;;;;5.50;3.65;;;2.60;99.90;;;;;;5051017;27;20598;-82
2021/04/26 03:52:29;;;;;;;6.55;2.55;;;2.70;99.90;;;;;;5094572;27;20610;-83
2021/04/26 03:54:55;;;;;;;6.22;2.90;;;2.70;99.90;;;;;;5089649;27;20696;-83
2021/04/26 03:57:21;;;;;;;6.72;3.20;;;2.70;99.90;;;;;;5056986;27;20577;-83
2021/04/26 03:59:47;;;;;;;3.65;3.00;;;2.80;99.90;;;;;;5116726;27;20215;-83
2021/04/26 04:02:13;;;;;;;6.22;2.88;;;2.80;99.90;;;;;;5059397;27;20291;-83
2021/04/26 04:04:40;;;;;;;11.40;4.68;;;2.80;99.90;;;;;;5087111;27;20270;-83
2021/04/26 04:07:07;;;;;;;4.93;3.20;;;2.80;99.90;;;;;;5097591;27;20189;-86
2021/04/26 04:09:33;;;;;;;4.90;3.30;;;2.90;99.90;;;;;;5048838;27;20278;-86
2021/04/26 04:12:00;;;;;;;4.78;2.95;;;3.00;99.90;;;;;;5115742;27;20191;-87
2021/04/26 04:14:26;;;;;;;3.38;2.63;;;3.10;99.90;;;;;;5068677;27;20183;-87
2021/04/26 04:16:52;;;;;;;3.28;2.40;;;3.10;99.90;;;;;;5077765;27;20258;-87
2021/04/26 04:19:18;;;;;;;7.75;2.85;;;3.20;99.90;;;;;;5105615;27;20629;-84
2021/04/26 04:21:44;;;;;;;4.45;2.45;;;3.20;99.90;;;;;;5046419;27;20607;-84
2021/04/26 04:24:11;;;;;;;4.30;2.05;;;3.30;99.90;;;;;;5107613;27;20183;-84
2021/04/26 04:26:37;;;;;;;3.88;2.35;;;3.40;99.90;;;;;;5032853;28;20637;-84
2021/04/26 04:29:05;;;;;;;5.20;2.70;;;3.50;99.90;;;;;;5094841;27;20278;-84
2021/04/26 04:31:31;;;;;;;4.60;2.30;;;3.60;99.90;;;;;;5049466;27;20267;-84
2021/04/26 04:33:57;;;;;;;3.28;1.95;;;3.70;99.90;;;;;;5116213;27;20665;-84
2021/04/26 04:36:23;;;;;;;6.10;2.03;;;3.70;99.90;;;;;;5066146;27;20218;-84
2021/04/26 04:38:49;;;;;;;6.35;1.98;;;3.80;99.90;;;;;;5078453;27;20222;-84
2021/04/26 04:41:16;;;;;;;2.97;1.75;;;3.90;99.90;;;;;;5048556;27;20187;-84
2021/04/26 04:43:42;;;;;;;5.28;2.00;;;4.00;99.90;;;;;;5115837;27;20211;-83
2021/04/26 04:46:08;;;;;;;2.70;1.33;;;4.10;99.90;;;;;;5055154;27;20234;-84
2021/04/26 04:48:34;;;;;;;4.03;2.33;;;4.20;99.90;;;;;;5090159;27;20307;-84
2021/04/26 04:51:01;;;;;;;3.22;2.30;;;4.30;99.90;;;;;;5092596;27;20183;-83
2021/04/26 04:53:27;;;;;;;2.58;1.80;;;4.40;99.90;;;;;;5052474;27;20649;-84
2021/04/26 04:55:53;;;;;;;4.70;1.92;;;4.40;99.90;;;;;;5115657;27;20225;-83
2021/04/26 04:58:20;;;;;;;2.58;2.38;;;4.40;99.90;;;;;;5062834;27;20199;-83
2021/04/26 05:00:46;;;;;;;4.50;2.80;;;4.50;99.90;;;;;;5081165;27;20198;-84
2021/04/26 05:03:12;;;;;;;3.47;2.00;;;4.60;99.90;;;;;;5100965;27;20190;-84
2021/04/26 05:05:38;;;;;;;3.63;1.52;;;4.70;99.90;;;;;;5047797;27;20182;-84
2021/04/26 05:08:05;;;;;;;3.47;1.92;;;4.70;99.90;;;;;;5111329;27;20290;-84
2021/04/26 05:10:31;;;;;;;2.13;1.10;;;4.80;99.90;;;;;;5071122;28;20637;-84
2021/04/26 05:12:57;;;;;;;2.70;1.40;;;4.80;99.90;;;;;;5072807;28;20198;-84
2021/04/26 05:15:24;;;;;;;3.03;1.60;;;4.90;99.90;;;;;;5109067;28;20315;-84
2021/04/26 05:17:52;;;;;;;6.97;1.42;;;5.00;99.90;;;;;;5047646;28;20361;-84
2021/04/26 05:20:18;;;;;;;4.50;1.25;;;5.20;99.90;;;;;;5101294;28;20183;-82
2021/04/26 05:22:45;;;;;;;4.15;1.85;;;5.30;99.90;;;;;;5081359;28;20683;-86
2021/04/26 05:25:12;;;;;;;4.95;1.27;;;5.50;99.90;;;;;;5062351;27;20188;-87
2021/04/26 05:27:39;;;;;;;2.05;1.77;;;5.70;99.90;;;;;;5033224;28;20190;-88
2021/04/26 05:30:07;;;;;;;1.98;1.77;;;6.00;99.90;;;;;;5065887;28;20187;-89
2021/04/26 05:32:34;;;;;;;3.85;1.55;;;6.30;99.90;;;;;;5033131;28;20443;-89
2021/04/26 05:35:00;;;;;;;6.95;1.77;;;6.60;99.90;;;;;;5033582;28;20191;-89
2021/04/26 05:37:26;;;;;;;3.13;1.50;;;6.90;99.90;;;;;;5033591;28;20740;-93
2021/04/26 05:39:52;;;;;;;2.40;1.70;;;7.10;99.00;;;;;;5050842;27;20519;-92
2021/04/26 05:42:18;;;;;;;4.93;1.45;;;7.30;99.40;;;;;;5044785;28;20187;-93
2021/04/26 05:44:44;;;;;;;2.45;1.40;;;7.40;98.60;;;;;;5032299;28;20179;-93
2021/04/26 05:47:11;;;;;;;7.75;1.55;;;7.60;97.80;;;;;;5035490;28;20190;-93
2021/04/26 05:49:38;;;;;;;2.88;1.20;;;7.70;97.50;;;;;;5035309;28;20179;-95
2021/04/26 05:52:05;;;;;;;3.65;1.20;;;7.90;97.80;;;;;;5033711;28;20235;-94
2021/04/26 05:54:31;;;;;;;3.47;1.10;;;8.00;97.50;;;;;;5033603;28;20182;-94
2021/04/26 05:56:57;;;;;;;1.92;1.00;;;8.00;96.70;;;;;;5033735;28;20331;-92
2021/04/26 05:59:23;;;;;;;1.88;1.20;;;8.10;97.10;;;;;;5037784;27;20706;-94
2021/04/26 06:01:50;;;;;;;3.20;0.98;;;8.10;96.80;;;;;;5034160;28;20626;-96
2021/04/26 06:04:16;;;;;;;3.38;1.20;;;8.20;97.00;;;;;;5045620;27;20254;-91
2021/04/26 06:06:43;;;;;;;7.30;1.10;;;8.20;96.90;;;;;;5032142;28;20240;-91
2021/04/26 06:09:09;;;;;;;1.10;0.90;;;8.30;97.00;;;;;;5032714;28;20183;-90
2021/04/26 06:11:35;;;;;;;2.08;0.90;;;8.40;96.90;;;;;;5040992;27;20182;-90
2021/04/26 06:14:02;;;;;;;1.95;1.15;;;8.60;97.90;;;;;;5039748;27;20222;-85
2021/04/26 06:16:28;;;;;;;1.48;1.30;;;8.80;96.10;;;;;;5054530;27;20203;-85
2021/04/26 06:18:54;;;;;;;3.58;1.25;;;8.90;96.10;;;;;;5039720;27;20653;-85
2021/04/26 06:21:20;;;;;;;1.38;1.00;;;8.90;96.10;;;;;;5108802;27;20183;-90
2021/04/26 06:23:47;;;;;;;1.83;1.10;;;9.00;96.10;;;;;;5023446;27;20610;-88
2021/04/26 06:26:13;;;;;;;1.55;1.05;;;9.20;96.40;;;;;;5107924;27;20187;-87
2021/04/26 06:28:39;;;;;;;1.60;1.03;;;9.60;96.00;;;;;;5079508;27;20179;-89
2021/04/26 06:31:05;;;;;;;1.20;1.00;;;9.80;94.90;;;;;;5070333;27;20466;-88
2021/04/26 06:33:31;;;;;;;5.00;1.92;;;9.90;94.50;;;;;;5117018;27;20419;-90
2021/04/26 06:35:57;;;;;;;2.10;1.00;;;10.00;93.80;;;;;;5049569;27;20219;-84
2021/04/26 06:38:24;;;;;;;2.55;0.90;;;9.90;94.00;;;;;;5099289;27;20555;-86
2021/04/26 06:40:52;;;;;;;1.50;0.87;;;10.00;94.30;;;;;;5086891;27;20211;-86
2021/04/26 06:43:19;;;;;;;2.45;1.13;;;9.80;93.60;;;;;;5060094;27;20453;-86
2021/04/26 06:45:45;;;;;;;2.15;0.98;;;9.70;94.30;;;;;;5117971;27;20653;-86
2021/04/26 06:48:15;;;;;;;4.05;1.17;;;9.80;93.70;;;;;;5058839;27;20179;-86
2021/04/26 06:50:41;;;;;;;2.17;1.30;;;9.90;93.50;;;;;;5086745;27;20202;-87
2021/04/26 06:53:08;;;;;;;1.65;0.85;;;9.80;93.60;;;;;;5099618;27;20419;-87
2021/04/26 06:55:34;;;;;;;1.23;1.03;;;9.90;93.30;;;;;;5049067;27;20198;-87
2021/04/26 06:58:01;;;;;;;7.70;1.23;;;10.10;92.40;;;;;;5116550;27;20488;-81
2021/04/26 07:00:28;;;;;;;3.50;1.00;;;10.20;91.60;;;;;;5070402;27;20191;-85
2021/04/26 07:02:54;;;;;;;1.00;0.90;;;10.20;90.90;;;;;;5061923;27;20477;-85
2021/04/26 07:05:21;;;;;;;1.33;0.90;;;10.30;91.50;;;;;;5097640;27;20442;-85
2021/04/26 07:07:47;;;;;;;0.97;0.80;;;10.00;90.30;;;;;;5124103;27;20447;-86
2021/04/26 07:10:13;;;;;;;6.23;3.80;;;10.10;90.20;;;;;;5059915;27;20445;-86
2021/04/26 07:12:40;;;;;;;1.02;0.77;;;10.30;90.00;;;;;;5087646;27;20801;-86
2021/04/26 07:15:10;;;;;;;1.93;1.53;;;10.30;88.60;;;;;;5097970;27;20646;-86
2021/04/26 07:17:39;;;;;;;2.47;0.80;;;10.30;88.60;;;;;;5048750;27;20959;-86
2021/04/26 07:20:10;;;;;;;1.50;0.77;;;10.40;88.30;;;;;;5112269;27;20505;-86
2021/04/26 07:22:36;;;;;;;1.73;0.80;;;10.10;84.60;;;;;;5031633;27;20429;-87
2021/04/26 07:25:04;;;;;;;1.37;1.23;;;10.00;86.40;;;;;;5032728;27;20498;-87
2021/04/26 07:27:30;;;;;;;1.00;0.70;;;10.10;85.20;;;;;;5032604;27;20943;-86
2021/04/26 07:29:56;;;;;;;3.37;1.03;;;9.90;82.00;;;;;;5036846;27;20424;-86
2021/04/26 07:32:24;;;;;;;4.70;1.30;;;9.80;84.10;;;;;;5032787;27;20448;-86
2021/04/26 07:34:50;;;;;;;1.40;1.30;;;9.60;86.30;;;;;;5085506;27;20459;-86
2021/04/26 07:37:17;;;;;;;1.30;1.10;;;9.70;86.20;;;;;;5106190;27;20447;-86
2021/04/26 07:39:43;;;;;;;2.13;0.93;;;9.70;83.60;;;;;;5048628;27;20837;-86
2021/04/26 07:42:09;;;;;;;1.42;0.90;;;9.90;82.70;;;;;;5066772;27;20214;-86
2021/04/26 07:44:36;;;;;;;1.57;0.80;;;10.00;81.30;;;;;;5036822;27;20718;-86
2021/04/26 07:47:02;;;;;;;3.60;1.47;;;10.10;81.20;;;;;;5040212;27;20436;-86
2021/04/26 07:49:29;;;;;;;0.80;0.70;;;10.30;83.20;;;;;;5040118;27;20420;-86
2021/04/26 07:51:55;;;;;;;1.90;1.00;;;10.30;80.40;;;;;;5042086;27;20809;-86
2021/04/26 07:54:21;;;;;;;1.30;0.83;;;10.20;79.70;;;;;;5065274;27;20449;-86
2021/04/26 07:56:47;;;;;;;2.65;0.80;;;10.00;80.80;;;;;;5081202;27;20512;-86
2021/04/26 07:59:15;;;;;;;4.90;1.50;;;10.00;80.60;;;;;;5102574;27;20191;-91
2021/04/26 08:01:41;;;;;;;1.40;1.20;;;10.10;82.30;;;;;;5048316;27;20475;-90
2021/04/26 08:04:07;;;;;;;1.40;0.80;;;10.00;77.80;;;;;;5110971;27;20424;-86
2021/04/26 08:06:38;;;;;;;2.20;0.90;;;10.10;78.30;;;;;;5073844;27;20453;-85
2021/04/26 08:09:05;;;;;;;1.60;0.93;;;10.10;79.10;;;;;;5072407;27;20934;-95
2021/04/26 08:11:31;;;;;;;5.33;1.00;;;10.10;79.80;;;;;;5033046;28;20415;-93
2021/04/26 08:13:57;;;;;;;1.10;0.80;;;10.20;78.90;;;;;;5031777;28;20451;-95
2021/04/26 08:16:23;;;;;;;1.90;1.20;;;10.20;80.90;;;;;;5032384;28;20454;-91
2021/04/26 08:18:50;;;;;;;1.33;0.97;;;10.10;78.70;;;;;;5031656;28;20808;-92
2021/04/26 08:21:16;;;;;;;1.73;1.10;;;9.90;81.00;;;;;;5031805;28;20502;-91
2021/04/26 08:23:43;;;;;;;1.23;0.80;;;9.90;81.40;;;;;;5037546;27;20428;-83
2021/04/26 08:26:09;;;;;;;1.00;0.70;;;9.80;82.00;;;;;;5134284;27;20445;-88
2021/04/26 08:28:36;;;;;;;1.10;0.83;;;9.80;81.20;;;;;;5090187;27;21230;-89
2021/04/26 08:31:06;;;;;;;1.23;0.90;;;9.90;79.40;;;;;;5094360;27;20850;-88
2021/04/26 08:33:32;;;;;;;2.00;0.90;;;9.80;78.20;;;;;;5048660;27;20992;-89
2021/04/26 08:35:58;;;;;;;1.20;0.83;;;9.70;80.00;;;;;;5116596;27;20459;-89
2021/04/26 08:38:24;;;;;;;1.57;0.90;;;9.60;78.30;;;;;;5067002;27;21057;-89
2021/04/26 08:40:51;;;;;;;1.10;0.97;;;9.60;79.20;;;;;;5134177;27;20467;-89
2021/04/26 08:43:17;;;;;;;1.00;0.80;;;9.60;77.80;;;;;;5133749;27;20423;-88
2021/04/26 08:45:44;;;;;;;1.38;0.88;;;9.70;78.90;;;;;;5047797;27;20257;-87
2021/04/26 08:48:10;;;;;;;1.00;0.70;;;9.90;77.50;;;;;;5106913;27;20764;-89
2021/04/26 08:50:36;;;;;;;1.43;0.80;;;10.10;77.90;;;;;;5073314;27;20965;-89
2021/04/26 08:53:02;;;;;;;0.70;0.70;;;9.90;73.60;;;;;;5070092;27;20473;-89
2021/04/26 08:55:28;;;;;;;2.40;0.90;;;9.70;73.80;;;;;;5112970;27;20472;-90
2021/04/26 08:57:55;;;;;;;1.77;0.80;;;9.70;74.30;;;;;;5047862;27;20895;-89
2021/04/26 09:00:23;;;;;;;0.80;0.70;;;9.70;74.50;;;;;;5099151;27;20445;-88
2021/04/26 09:02:53;;;;;;;1.30;0.70;;;9.80;74.90;;;;;;5029331;28;20504;-90
2021/04/26 09:05:25;;;;;;;3.70;1.10;;;10.00;73.60;;;;;;5035781;27;20820;-89
2021/04/26 09:07:53;;;;;;;2.07;0.70;;;10.00;73.50;;;;;;5038428;27;20446;-89
2021/04/26 09:10:51;;;;;;;1.57;0.90;;;10.00;73.70;;;;;;5062771;28;20441;-89
2021/04/26 09:13:39;;;;;;;1.17;0.80;;;10.10;73.20;;;;;;5017867;28;20553;-92
2021/04/26 09:16:50;;;;;;;3.13;0.80;;;10.10;73.20;;;;;;5040113;28;20445;-91
2021/04/26 09:19:28;;;;;;;1.07;0.70;;;10.40;70.60;;;;;;5054826;28;20450;-92
2021/04/26 09:21:55;;;;;;;2.73;1.07;;;10.50;69.80;;;;;;5120304;28;20512;-92
2021/04/26 09:24:24;;;;;;;2.17;1.20;;;10.80;70.10;;;;;;5134920;27;20454;-90
2021/04/26 09:26:52;;;;;;;2.03;0.90;;;10.60;68.20;;;;;;5082367;27;20431;-84
2021/04/26 09:29:24;;;;;;;4.40;0.80;;;10.60;68.60;;;;;;5108526;27;20842;-85
2021/04/26 09:32:09;;;;;;;1.23;0.67;;;11.00;69.40;;;;;;5050858;27;20940;-86
2021/04/26 09:34:41;;;;;;;0.83;0.70;;;11.60;67.40;;;;;;5092761;27;20449;-85
2021/04/26 09:37:12;;;;;;;1.50;0.90;;;11.90;63.60;;;;;;5100329;27;20968;-91
2021/04/26 09:39:55;;;;;;;2.40;0.80;;;12.00;61.40;;;;;;5048565;27;20775;-92
2021/04/26 09:42:43;;;;;;;1.47;0.67;;;12.20;59.30;;;;;;5033401;28;21119;-90
2021/04/26 09:45:21;;;;;;;0.80;0.60;;;12.40;60.10;;;;;;5085940;27;20448;-92
2021/04/26 09:47:47;;;;;;;4.40;0.87;;;12.80;59.30;;;;;;5085872;27;20441;-89
2021/04/26 09:50:14;;;;;;;0.90;0.70;;;13.10;58.70;;;;;;5042764;27;20420;-93
2021/04/26 09:52:40;;;;;;;2.90;1.33;;;13.20;58.60;;;;;;5056521;27;20498;-88
2021/04/26 09:55:27;;;;;;;1.97;1.10;;;13.30;58.30;;;;;;5042414;27;20512;-91
2021/04/26 09:57:53;;;;;;;1.00;0.80;;;13.30;57.90;;;;;;5033965;28;20541;-92
2021/04/26 10:00:21;;;;;;;2.33;0.90;;;13.30;58.40;;;;;;5033641;28;20445;-92
2021/04/26 10:02:48;;;;;;;3.63;1.00;;;13.20;57.30;;;;;;5033880;28;20476;-93
2021/04/26 10:05:15;;;;;;;3.73;1.00;;;12.90;57.40;;;;;;5034387;28;20473;-92
2021/04/26 10:07:42;;;;;;;1.20;0.80;;;12.60;57.50;;;;;;5033908;28;20445;-92
2021/04/26 10:10:10;;;;;;;1.10;0.97;;;12.70;58.30;;;;;;5059281;27;20455;-93
2021/04/26 10:12:36;;;;;;;1.47;0.90;;;12.90;58.90;;;;;;5137982;27;20456;-93
2021/04/26 10:15:05;;;;;;;1.50;0.77;;;13.00;57.90;;;;;;5138494;27;20868;-94
2021/04/26 10:17:37;;;;;;;3.27;0.80;;;12.80;57.50;;;;;;5138426;27;20476;-93
2021/04/26 10:20:04;;;;;;;3.33;1.20;;;12.50;58.00;;;;;;5138361;27;21062;-93
2021/04/26 10:22:36;;;;;;;5.20;0.97;;;12.30;58.50;;;;;;5069781;27;20475;-93
2021/04/26 10:25:03;;;;;;;9.20;0.90;;;11.80;58.30;;;;;;5014565;28;20458;-91
2021/04/26 10:27:31;;;;;;;2.00;1.73;;;11.40;59.10;;;;;;5013474;28;20468;-93
2021/04/26 10:30:05;;;;;;;4.43;1.10;;;11.10;60.60;;;;;;5014144;28;20450;-92
2021/04/26 10:32:55;;;;;;;1.83;0.83;;;11.00;61.70;;;;;;5014474;28;20437;-92
2021/04/26 10:35:22;;;;;;;1.13;0.70;;;11.10;63.30;;;;;;5013151;28;20433;-93
2021/04/26 10:37:49;;;;;;;1.27;0.80;;;11.40;63.30;;;;;;5025005;27;20514;-91
2021/04/26 10:40:21;;;;;;;2.27;0.97;;;11.80;63.40;;;;;;5107845;27;20445;-92
2021/04/26 10:42:50;;;;;;;1.00;0.70;;;12.00;62.70;;;;;;5034570;28;20471;-92
2021/04/26 10:45:22;;;;;;;1.33;0.80;;;12.20;62.80;;;;;;5033385;28;20453;-93
2021/04/26 10:48:10;;;;;;;4.93;1.10;;;12.30;63.00;;;;;;5044352;27;20492;-92
2021/04/26 10:50:48;;;;;;;2.70;0.90;;;12.30;62.80;;;;;;5092209;27;20449;-91
2021/04/26 10:53:15;;;;;;;4.77;0.90;;;12.40;61.80;;;;;;5102333;27;20989;-86
2021/04/26 10:55:52;;;;;;;2.37;1.17;;;12.40;61.10;;;;;;5051167;27;20449;-85
2021/04/26 10:58:33;;;;;;;2.53;1.00;;;12.50;61.60;;;;;;5111137;27;20480;-86
2021/04/26 11:01:00;;;;;;;1.00;0.80;;;12.70;62.00;;;;;;5064408;27;20564;-84
2021/04/26 11:03:42;;;;;;;5.33;0.90;;;12.90;61.10;;;;;;5112463;27;20452;-85
2021/04/26 11:06:16;;;;;;;2.60;0.97;;;13.00;59.80;;;;;;5043570;27;20453;-85
2021/04/26 11:08:48;;;;;;;1.77;0.80;;;13.20;60.10;;;;;;5118270;27;20415;-85
2021/04/26 11:11:17;;;;;;;1.83;0.73;;;13.40;59.60;;;;;;5129128;27;20524;-86
2021/04/26 11:13:54;;;;;;;2.40;0.77;;;13.70;60.10;;;;;;5048827;27;20487;-86
2021/04/26 11:16:22;;;;;;;1.10;0.80;;;13.70;59.90;;;;;;5037496;27;20449;-86
2021/04/26 11:19:07;;;;;;;1.90;1.07;;;13.80;59.80;;;;;;5032302;27;20550;-86
2021/04/26 11:21:54;;;;;;;4.40;0.93;;;13.80;59.30;;;;;;5036511;27;20457;-85
2021/04/26 11:25:00;;;;;;;3.63;0.97;;;13.50;58.50;;;;;;5043725;27;20457;-86
2021/04/26 11:27:26;;;;;;;1.10;0.70;;;13.40;58.00;;;;;;5033285;27;20508;-85
2021/04/26 11:30:18;;;;;;;1.30;0.90;;;13.50;57.90;;;;;;5116984;27;20445;-85
2021/04/26 11:33:05;;;;;;;3.40;0.90;;;13.50;57.80;;;;;;5081794;27;20445;-85
2021/04/26 11:35:34;;;;;;;2.20;0.70;;;13.60;57.30;;;;;;5049699;27;20453;-85
2021/04/26 11:38:01;;;;;;;1.77;0.90;;;13.60;56.80;;;;;;5048818;27;20507;-85
2021/04/26 11:40:29;;;;;;;1.10;1.00;;;13.50;56.70;;;;;;5082489;27;20447;-85
2021/04/26 11:43:05;;;;;;;1.20;0.80;;;13.60;56.00;;;;;;5099826;27;20900;-86
2021/04/26 11:45:32;;;;;;;2.80;1.07;;;13.50;55.80;;;;;;5115672;27;20441;-85
2021/04/26 11:47:59;;;;;;;1.53;1.20;;;13.40;56.10;;;;;;5016400;28;20919;-84
2021/04/26 11:50:25;;;;;;;2.80;0.97;;;13.30;55.70;;;;;;5034762;27;20445;-86
2021/04/26 11:52:52;;;;;;;3.57;0.90;;;13.10;55.80;;;;;;5028227;28;20450;-84
2021/04/26 11:55:20;;;;;;;6.13;1.13;;;13.00;55.60;;;;;;5064564;27;20457;-84
2021/04/26 11:57:48;;;;;;;2.40;0.90;;;12.70;54.80;;;;;;5116444;27;20554;-85
2021/04/26 12:00:17;;;;;;;1.40;0.80;;;12.50;55.30;;;;;;5060050;27;20445;-85
2021/04/26 12:02:45;;;;;;;1.67;0.90;;;12.40;56.10;;;;;;5083682;27;20837;-84
2021/04/26 12:05:14;;;;;;;4.73;1.00;;;12.40;56.20;;;;;;5101040;27;20441;-85
2021/04/26 12:07:41;;;;;;;1.80;0.90;;;12.50;56.00;;;;;;5048030;27;20454;-85
2021/04/26 12:10:11;;;;;;;1.03;0.70;;;12.30;56.00;;;;;;5110095;27;20804;-85
2021/04/26 12:12:37;;;;;;;1.13;1.03;;;12.50;56.50;;;;;;5076174;27;20444;-84
2021/04/26 12:15:07;;;;;;;0.90;0.80;;;12.70;56.80;;;;;;5069448;27;20824;-86
2021/04/26 12:17:35;;;;;;;1.83;0.80;;;13.00;56.60;;;;;;5061335;27;20491;-86
2021/04/26 12:20:09;;;;;;;3.57;0.97;;;13.30;56.40;;;;;;5028583;28;20517;-87
2021/04/26 12:22:35;;;;;;;4.00;1.20;;;13.50;56.00;;;;;;5025938;28;21008;-87
2021/04/26 12:25:04;;;;;;;1.37;0.93;;;13.70;55.50;;;;;;5028414;28;20458;-88
2021/04/26 12:27:31;;;;;;;1.63;0.80;;;13.80;54.20;;;;;;5028402;28;20506;-87
2021/04/26 12:30:10;;;;;;;2.73;1.07;;;13.80;53.30;;;;;;5035284;27;20462;-87
2021/04/26 12:32:36;;;;;;;0.97;0.87;;;13.80;53.60;;;;;;5133069;27;20458;-88
2021/04/26 12:35:05;;;;;;;0.90;0.70;;;14.00;53.80;;;;;;5065666;27;20948;-88
2021/04/26 12:37:33;;;;;;;2.40;0.77;;;14.00;52.30;;;;;;5029560;28;20502;-87
2021/04/26 12:40:27;;;;;;;2.57;0.90;;;13.90;51.90;;;;;;5030101;28;20474;-87
2021/04/26 12:43:03;;;;;;;1.10;0.80;;;14.00;52.70;;;;;;4994818;27;20850;-87
2021/04/26 12:45:31;;;;;;;3.07;0.90;;;14.10;52.40;;;;;;5029870;28;20452;-87
2021/04/26 12:47:59;;;;;;;1.77;1.13;;;14.30;52.00;;;;;;5030052;28;20824;-87
2021/04/26 12:50:30;;;;;;;1.57;0.93;;;14.30;51.20;;;;;;5029907;28;21005;-88
2021/04/26 12:53:08;;;;;;;1.63;0.90;;;14.20;51.50;;;;;;5030033;28;20498;-86
2021/04/26 12:55:36;;;;;;;2.20;0.90;;;14.00;50.60;;;;;;5031337;28;20457;-95
2021/04/26 12:58:09;;;;;;;1.20;0.90;;;14.00;51.10;;;;;;5031350;28;20481;-96
2021/04/26 13:00:37;;;;;;;1.53;0.80;;;14.00;51.50;;;;;;5033331;28;20461;-94